Jackson, NH (03846)

12:34 PM EST on December 18, 2014 (GMT -0500)
Carter Notch | Change Station
CLOSE
Current Station
Personal Weather Station
Location: Jackson, NH
Elevation: 1709 ft
Nearby Weather Stations

Elev 1709 ft 44.21 °N, 71.20 °W | Updated 15 minutes ago

Overcast
Overcast
33.3 °F
Feels Like 33 °F
N
2.0
Wind Variable Wind from SSE
Gusts 7.0 mph

Today
High -- | Low -- °F
--% Chance of Precip.
Yesterday
High -- | Low -- °F
Precip. -- in
7:15 AM 4:07 PM
Waning Crescent, 13% visible
Pressure 29.70 in
Visibility 10.0 miles
Clouds Overcast 4100 ft
Windchill 33 °F
Dew Point 26 °F
Humidity 74%
Rainfall 0.00 in
Snow Depth Not available.
UV 1 out of 12
Pollen .10 out of 12
Air Quality Not available.
Flu Activity Not available.
METAR KIZG 181654Z AUTO 28013G19KT 10SM OVC041 04/M03 A2969 RMK AO2 SLP058 T00391033

More Conditions Fewer Conditions

Pressure 29.70 in
Visibility 10.0 miles
Clouds Overcast 4100 ft
Windchill 33 °F
Dew Point 26 °F
Humidity 74%
Rainfall 0.00 in
Snow Depth Not available.
UV 1 out of 12
Pollen .10 out of 12
Air Quality Not available.
Flu Activity Not available.
METAR KIZG 181654Z AUTO 28013G19KT 10SM OVC041 04/M03 A2969 RMK AO2 SLP058 T00391033

More Conditions Fewer Conditions

10-Day Weather Forecast

Almanac

Astronomy

Dec. 18, 2014 Rise Set
Actual Time
Civil Twilight
Nautical Twilight
Astronomical Twilight
Moon
Length of Visible Light
Length of Day
Tomorrow will be .
, % of the Moon is Illuminated

Today's Extremes

State Highs State Lows

Community

WunderPhotos

Upload Photos

1,778,967 photos uploaded!

WunderBlogs® & News

Nearby

Air Quality

  Air Quality AQ Index Pollutant
Not available.

Snow Depth

Station Depth Elevation

Earthquake Activity

City Distance Mag. Time & Date
Minimum magnitude displayed is 2.5.

Coastal Water Temperatures

Place Temperature

Nearby Weather Stations